createdAt,value
2023-06-09T00:01:36.860Z,82.82
2023-06-09T00:04:05.331Z,84.40
2023-06-09T00:06:34.329Z,84.88
2023-06-09T00:09:02.629Z,83.65
2023-06-09T00:11:32.295Z,83.70
2023-06-09T00:14:01.681Z,84.65
2023-06-09T00:16:29.990Z,87.13
2023-06-09T00:19:02.960Z,85.40
2023-06-09T00:21:31.645Z,85.78
2023-06-09T00:24:00.078Z,85.43
2023-06-09T00:26:28.223Z,85.80
2023-06-09T00:28:57.868Z,86.13
2023-06-09T00:31:27.663Z,85.63
2023-06-09T00:33:56.526Z,85.35
2023-06-09T00:36:24.652Z,84.47
2023-06-09T00:38:52.823Z,84.65
2023-06-09T00:41:20.962Z,85.97
2023-06-09T00:43:49.832Z,87.15
2023-06-09T00:46:19.622Z,87.75
2023-06-09T00:48:47.871Z,88.03
2023-06-09T00:51:16.361Z,87.60
2023-06-09T00:53:45.089Z,90.00
2023-06-09T00:56:13.529Z,89.10
2023-06-09T00:58:41.903Z,91.22
2023-06-09T01:01:11.323Z,91.55
2023-06-09T01:03:42.163Z,93.65
2023-06-09T01:06:28.177Z,94.07
2023-06-09T01:09:00.611Z,93.40
2023-06-09T01:11:35.474Z,95.22
2023-06-09T01:14:11.196Z,95.88
2023-06-09T01:16:45.454Z,96.38
2023-06-09T01:19:32.574Z,97.75
2023-06-09T01:22:04.855Z,98.18
2023-06-09T01:24:47.253Z,98.75
2023-06-09T01:27:19.434Z,96.45
2023-06-09T01:29:49.104Z,98.65
2023-06-09T01:32:20.343Z,97.18
2023-06-09T01:34:50.043Z,97.68
2023-06-09T01:37:18.297Z,97.93
2023-06-09T01:39:48.385Z,97.45
2023-06-09T01:42:18.127Z,96.40
2023-06-09T01:44:46.177Z,96.25
2023-06-09T01:47:16.361Z,96.32
2023-06-09T01:49:50.470Z,95.50
2023-06-09T01:52:23.379Z,94.43
2023-06-09T01:54:56.395Z,94.32
2023-06-09T01:57:32.468Z,93.55
2023-06-09T02:00:04.938Z,94.25
2023-06-09T02:02:43.810Z,94.05
2023-06-09T02:05:15.106Z,93.53
2023-06-09T02:07:45.455Z,91.43
2023-06-09T02:10:14.640Z,91.68
2023-06-09T02:12:44.338Z,93.70
2023-06-09T02:15:12.675Z,92.07
2023-06-09T02:17:41.718Z,92.97
2023-06-09T02:20:12.346Z,92.65
2023-06-09T02:22:40.654Z,93.07
2023-06-09T02:25:10.261Z,94.43
2023-06-09T02:27:39.346Z,92.20
2023-06-09T02:30:09.938Z,91.95
2023-06-09T02:32:38.600Z,93.10
2023-06-09T02:35:07.991Z,92.38
2023-06-09T02:37:37.272Z,92.63
2023-06-09T02:40:07.862Z,92.45
2023-06-09T02:42:36.009Z,93.20
2023-06-09T02:45:04.875Z,94.13
2023-06-09T02:47:34.651Z,94.07
2023-06-09T02:50:02.861Z,93.70
2023-06-09T02:52:32.721Z,92.55
2023-06-09T02:55:01.991Z,93.55
2023-06-09T02:57:30.613Z,92.85
2023-06-09T02:59:59.736Z,92.32
2023-06-09T03:02:29.214Z,93.05
2023-06-09T03:04:59.338Z,94.53
2023-06-09T03:07:27.826Z,94.85
2023-06-09T03:09:55.965Z,93.80
2023-06-09T03:12:24.217Z,93.47
2023-06-09T03:14:52.946Z,94.25
2023-06-09T03:17:21.562Z,93.10
2023-06-09T03:19:50.022Z,92.30
2023-06-09T03:22:19.607Z,92.43
2023-06-09T03:24:47.834Z,93.15
2023-06-09T03:27:16.526Z,94.97
2023-06-09T03:29:44.746Z,94.40
2023-06-09T03:32:13.570Z,94.60
2023-06-09T03:34:42.644Z,94.28
2023-06-09T03:37:13.796Z,97.75
2023-06-09T03:39:43.487Z,97.68
2023-06-09T03:42:13.661Z,97.30
2023-06-09T03:44:41.803Z,97.97
2023-06-09T03:47:10.945Z,99.13
2023-06-09T03:49:40.486Z,99.28
2023-06-09T03:52:08.814Z,97.82
2023-06-09T03:54:39.302Z,98.50
2023-06-09T03:57:10.290Z,100.20
2023-06-09T03:59:38.605Z,100.88
2023-06-09T04:02:07.050Z,98.93
2023-06-09T04:04:35.408Z,100.28
2023-06-09T04:07:06.127Z,100.85
2023-06-09T04:09:34.508Z,99.97
2023-06-09T04:12:02.930Z,99.55
2023-06-09T04:14:33.211Z,100.88
2023-06-09T04:17:01.623Z,99.53
2023-06-09T04:19:29.880Z,99.20
2023-06-09T04:21:58.359Z,100.13
2023-06-09T04:24:26.565Z,98.22
2023-06-09T04:26:55.220Z,99.55
2023-06-09T04:29:24.949Z,97.57
2023-06-09T04:32:00.589Z,99.18
2023-06-09T04:34:39.800Z,98.00
2023-06-09T04:37:10.458Z,98.30
2023-06-09T04:39:38.651Z,99.03
2023-06-09T04:42:09.249Z,101.85
2023-06-09T04:44:37.638Z,94.45
2023-06-09T04:47:08.516Z,90.88
2023-06-09T04:49:38.742Z,90.65
2023-06-09T04:52:08.841Z,87.95
2023-06-09T04:54:37.857Z,87.53
2023-06-09T04:57:10.844Z,84.20
2023-06-09T04:59:40.279Z,82.97
2023-06-09T05:02:10.310Z,82.20
2023-06-09T05:04:38.672Z,81.75
2023-06-09T05:07:07.858Z,81.05
2023-06-09T05:09:37.043Z,79.32
2023-06-09T05:12:06.002Z,76.55
2023-06-09T05:14:34.225Z,76.63
2023-06-09T05:17:04.918Z,75.82
2023-06-09T05:19:34.502Z,77.05
2023-06-09T05:22:02.642Z,76.75
2023-06-09T05:24:31.061Z,75.18
2023-06-09T05:26:59.344Z,74.10
2023-06-09T05:29:27.908Z,75.25
2023-06-09T05:31:56.131Z,73.85
2023-06-09T05:34:24.980Z,75.38
2023-06-09T05:36:54.896Z,72.60
2023-06-09T05:39:25.938Z,74.85
2023-06-09T05:41:54.213Z,74.30
2023-06-09T05:44:22.418Z,74.00
2023-06-09T05:46:50.637Z,70.15
2023-06-09T05:49:18.799Z,68.45
2023-06-09T05:51:46.902Z,65.10
2023-06-09T05:54:16.407Z,63.03
2023-06-09T05:56:46.151Z,63.45
2023-06-09T05:59:15.204Z,60.60
2023-06-09T06:01:44.152Z,59.70
2023-06-09T06:04:12.425Z,57.13
2023-06-09T06:06:40.712Z,55.75
2023-06-09T06:09:10.287Z,53.83
2023-06-09T06:11:39.900Z,51.33
2023-06-09T06:14:07.999Z,48.60
2023-06-09T06:16:36.194Z,46.33
2023-06-09T06:19:04.393Z,45.95
2023-06-09T06:21:32.428Z,42.58
2023-06-09T06:24:00.879Z,41.80
2023-06-09T06:26:29.011Z,39.28
2023-06-09T06:28:58.552Z,39.47
2023-06-09T06:31:29.474Z,37.80
2023-06-09T06:33:58.032Z,38.15
2023-06-09T06:36:26.500Z,40.97
2023-06-09T06:38:54.735Z,40.47
2023-06-09T06:41:23.064Z,40.75
2023-06-09T06:43:52.470Z,40.28
2023-06-09T06:46:22.072Z,39.65
2023-06-09T06:48:50.236Z,38.75
2023-06-09T06:51:18.674Z,40.30
2023-06-09T06:53:46.825Z,39.40
2023-06-09T06:56:15.016Z,38.65
2023-06-09T06:58:43.241Z,39.88
2023-06-09T07:01:11.963Z,38.83
2023-06-09T07:03:41.622Z,36.65
2023-06-09T07:06:10.757Z,37.63
2023-06-09T07:08:38.976Z,38.55
2023-06-09T07:11:07.018Z,38.33
2023-06-09T07:13:35.113Z,35.90
2023-06-09T07:16:03.531Z,36.42
2023-06-09T07:18:31.946Z,33.03
2023-06-09T07:21:04.131Z,32.80
2023-06-09T07:23:33.617Z,32.38
2023-06-09T07:26:01.783Z,31.63
2023-06-09T07:28:30.183Z,29.67
2023-06-09T07:30:58.348Z,30.85
2023-06-09T07:33:32.471Z,29.65
2023-06-09T07:36:02.262Z,28.23
2023-06-09T07:38:30.438Z,26.88
2023-06-09T07:40:58.567Z,30.23
2023-06-09T07:43:26.928Z,24.80
2023-06-09T07:45:55.048Z,24.23
2023-06-09T07:48:23.129Z,24.67
2023-06-09T07:51:00.949Z,23.65
2023-06-09T07:53:31.438Z,22.50
2023-06-09T07:56:01.050Z,22.63
2023-06-09T07:58:38.133Z,22.35
2023-06-09T08:01:06.348Z,20.65
2023-06-09T08:03:37.157Z,20.55
2023-06-09T08:06:05.772Z,18.50
2023-06-09T08:08:35.750Z,18.40
2023-06-09T08:11:03.957Z,17.80
2023-06-09T08:13:32.277Z,15.23
2023-06-09T08:16:00.367Z,15.18
2023-06-09T08:18:28.592Z,16.13
2023-06-09T08:20:56.679Z,15.40
2023-06-09T08:23:24.740Z,14.75
2023-06-09T08:25:54.266Z,15.90
2023-06-09T08:28:22.536Z,16.13
2023-06-09T08:30:50.675Z,15.77
2023-06-09T08:33:18.920Z,16.48
2023-06-09T08:35:47.212Z,16.25
2023-06-09T08:38:15.342Z,16.27
2023-06-09T08:40:43.572Z,15.50
2023-06-09T08:43:13.007Z,15.23
2023-06-09T08:45:45.680Z,15.30
2023-06-09T08:48:19.631Z,15.05
2023-06-09T08:50:48.116Z,15.68
2023-06-09T08:53:16.714Z,15.80
2023-06-09T08:55:46.289Z,15.98
2023-06-09T08:58:16.180Z,15.35
2023-06-09T09:00:44.350Z,14.73
2023-06-09T09:03:12.781Z,14.65
2023-06-09T09:05:41.028Z,14.82
2023-06-09T09:08:09.992Z,15.70
2023-06-09T09:10:39.847Z,15.07
2023-06-09T09:13:10.057Z,15.82
2023-06-09T09:15:48.182Z,14.90
2023-06-09T09:18:17.501Z,14.73
2023-06-09T09:20:45.963Z,15.55
2023-06-09T09:23:14.329Z,14.55
2023-06-09T09:25:45.195Z,14.55
2023-06-09T09:28:14.985Z,14.30
2023-06-09T09:30:46.453Z,13.93
2023-06-09T09:33:16.678Z,14.70
2023-06-09T09:35:49.380Z,12.85
2023-06-09T09:38:19.214Z,12.55
2023-06-09T09:40:48.540Z,10.60
2023-06-09T09:43:18.109Z,11.57
2023-06-09T09:45:49.451Z,12.63
2023-06-09T09:48:21.080Z,13.65
2023-06-09T09:50:50.533Z,11.50
2023-06-09T09:53:18.802Z,11.93
2023-06-09T09:55:48.185Z,11.10
2023-06-09T09:58:17.564Z,10.80
2023-06-09T10:00:48.748Z,11.70
2023-06-09T10:03:18.627Z,11.75
2023-06-09T10:05:48.416Z,11.00
2023-06-09T10:08:22.507Z,11.05
2023-06-09T10:10:52.714Z,13.32
2023-06-09T10:13:23.454Z,12.43
2023-06-09T10:15:53.789Z,12.90
2023-06-09T10:18:22.732Z,12.32
2023-06-09T10:20:52.909Z,13.18
2023-06-09T10:23:21.786Z,12.10
2023-06-09T10:25:50.659Z,13.05
2023-06-09T10:28:20.006Z,14.80
2023-06-09T10:30:49.650Z,12.77
2023-06-09T10:33:24.324Z,11.27
2023-06-09T10:35:57.706Z,10.57
2023-06-09T10:38:29.737Z,10.70
2023-06-09T10:41:11.637Z,11.77
2023-06-09T10:44:00.718Z,10.07
2023-06-09T10:46:43.994Z,9.98
2023-06-09T10:49:40.397Z,9.70
2023-06-09T10:52:11.559Z,9.15
2023-06-09T10:54:39.900Z,9.32
2023-06-09T10:57:28.858Z,9.15
2023-06-09T10:59:58.872Z,9.35
2023-06-09T11:02:27.757Z,9.20
2023-06-09T11:04:56.386Z,9.90
2023-06-09T11:07:26.569Z,8.43
2023-06-09T11:10:37.495Z,7.82
2023-06-09T11:13:40.005Z,7.75
2023-06-09T11:16:10.309Z,7.30
2023-06-09T11:18:40.015Z,7.30
2023-06-09T11:21:22.320Z,6.95
2023-06-09T11:24:04.924Z,7.20
2023-06-09T11:26:35.050Z,8.30
2023-06-09T11:29:05.370Z,8.55
2023-06-09T11:31:51.490Z,8.32
2023-06-09T11:34:49.371Z,7.68
2023-06-09T11:37:19.570Z,8.32
2023-06-09T11:39:47.911Z,10.07
2023-06-09T11:42:18.415Z,9.50
2023-06-09T11:44:46.857Z,10.27
2023-06-09T11:47:30.572Z,8.73
2023-06-09T11:50:03.500Z,9.10
2023-06-09T11:52:31.899Z,9.57
2023-06-09T11:55:03.596Z,9.60
2023-06-09T11:57:32.658Z,9.18
2023-06-09T12:00:02.712Z,9.65
2023-06-09T12:02:42.816Z,8.68
2023-06-09T12:05:13.178Z,10.00
2023-06-09T12:07:44.663Z,10.35
2023-06-09T12:12:45.749Z,9.95
2023-06-09T12:15:15.151Z,10.32
2023-06-09T12:17:45.418Z,10.13
2023-06-09T12:20:26.182Z,10.70
2023-06-09T12:22:55.649Z,11.20
2023-06-09T12:25:26.558Z,11.50
2023-06-09T12:27:55.689Z,11.48
2023-06-09T12:30:40.782Z,10.88
2023-06-09T12:33:12.074Z,11.63
2023-06-09T12:35:41.828Z,13.27
2023-06-09T12:38:14.942Z,13.15
2023-06-09T12:40:47.486Z,12.75
2023-06-09T12:43:15.852Z,11.93
2023-06-09T12:45:44.737Z,13.23
2023-06-09T12:48:14.408Z,11.70
2023-06-09T12:50:42.949Z,12.20
2023-06-09T12:53:11.833Z,13.68
2023-06-09T12:55:40.846Z,12.77
2023-06-09T12:58:12.255Z,13.00
2023-06-09T13:00:41.413Z,12.43
2023-06-09T13:03:11.509Z,13.05
2023-06-09T13:05:41.229Z,12.90
2023-06-09T13:08:09.471Z,12.10
2023-06-09T13:10:37.744Z,13.45
2023-06-09T13:13:06.067Z,13.52
2023-06-09T13:15:34.314Z,12.93
2023-06-09T13:18:02.849Z,13.30
2023-06-09T13:20:31.128Z,14.00
2023-06-09T13:23:00.679Z,16.90
2023-06-09T13:25:28.879Z,17.33
2023-06-09T13:27:56.966Z,16.85
2023-06-09T13:30:25.193Z,18.40
2023-06-09T13:32:53.436Z,16.92
2023-06-09T13:35:23.021Z,16.95
2023-06-09T13:37:51.221Z,16.50
2023-06-09T13:40:21.247Z,15.80
2023-06-09T13:42:53.812Z,15.73
2023-06-09T13:45:22.458Z,16.83
2023-06-09T13:47:51.017Z,15.52
2023-06-09T13:50:19.273Z,16.15
2023-06-09T13:52:47.671Z,15.45
2023-06-09T13:55:15.884Z,15.52
2023-06-09T13:57:46.019Z,15.30
2023-06-09T14:00:15.602Z,16.25
2023-06-09T14:02:44.439Z,17.80
2023-06-09T14:05:14.936Z,16.85
2023-06-09T14:07:46.612Z,16.73
2023-06-09T14:10:16.974Z,18.23
2023-06-09T14:12:49.653Z,18.10
2023-06-09T14:15:27.167Z,18.02
2023-06-09T14:17:57.302Z,16.25
2023-06-09T14:20:27.192Z,17.95
2023-06-09T14:22:57.114Z,17.83
2023-06-09T14:25:27.345Z,21.33
2023-06-09T14:27:57.702Z,18.13
2023-06-09T14:30:27.979Z,17.17
2023-06-09T14:32:56.850Z,15.02
2023-06-09T14:35:27.245Z,14.10
2023-06-09T14:37:57.339Z,13.32
2023-06-09T14:40:27.265Z,12.95
2023-06-09T14:42:57.222Z,11.63
2023-06-09T14:45:26.843Z,13.15
2023-06-09T14:47:56.767Z,12.50
2023-06-09T14:50:26.810Z,12.35
2023-06-09T14:52:59.830Z,13.35
2023-06-09T14:55:29.789Z,14.88
2023-06-09T14:58:00.962Z,11.05
2023-06-09T15:00:29.667Z,11.00
2023-06-09T15:02:59.559Z,8.57
2023-06-09T15:05:29.591Z,5.63
2023-06-09T15:07:59.775Z,7.68
2023-06-09T15:10:28.950Z,6.82
2023-06-09T15:12:57.041Z,6.68
2023-06-09T15:15:29.432Z,6.10
2023-06-09T15:17:59.125Z,9.23
2023-06-09T15:20:30.157Z,6.85
2023-06-09T15:22:59.871Z,7.18
2023-06-09T15:25:30.404Z,6.93
2023-06-09T15:28:01.348Z,7.70
2023-06-09T15:30:32.247Z,7.85
2023-06-09T15:33:04.271Z,9.48
2023-06-09T15:35:35.951Z,8.57
2023-06-09T15:38:06.081Z,9.05
2023-06-09T15:40:35.781Z,9.52
2023-06-09T15:43:05.233Z,9.52
2023-06-09T15:45:40.168Z,9.15
2023-06-09T15:48:08.476Z,9.20
2023-06-09T15:50:37.121Z,9.68
2023-06-09T15:53:05.611Z,9.68
2023-06-09T15:55:34.743Z,9.85
2023-06-09T15:58:05.245Z,10.93
2023-06-09T16:00:33.889Z,10.93
2023-06-09T16:03:06.856Z,10.93
2023-06-09T16:05:36.328Z,11.30
2023-06-09T16:08:05.202Z,11.95
2023-06-09T16:10:33.670Z,12.98
2023-06-09T16:13:02.830Z,13.20
2023-06-09T16:15:32.562Z,14.55
2023-06-09T16:18:03.973Z,14.05
2023-06-09T16:20:36.056Z,13.88
2023-06-09T16:23:06.154Z,14.05
2023-06-09T16:25:34.478Z,15.77
2023-06-09T16:28:03.902Z,14.77
2023-06-09T16:30:32.366Z,16.75
2023-06-09T16:33:01.680Z,22.52
2023-06-09T16:35:29.946Z,23.02
2023-06-09T16:37:59.361Z,20.58
2023-06-09T16:40:29.465Z,21.58
2023-06-09T16:42:59.879Z,21.55
2023-06-09T16:45:28.583Z,24.20
2023-06-09T16:47:57.445Z,27.00
2023-06-09T16:50:25.959Z,28.75
2023-06-09T16:52:55.504Z,30.48
2023-06-09T16:55:26.088Z,33.70
2023-06-09T16:57:54.394Z,35.78
2023-06-09T17:00:23.523Z,38.58
2023-06-09T17:02:55.447Z,40.42
2023-06-09T17:05:24.267Z,39.50
2023-06-09T17:07:52.461Z,38.92
2023-06-09T17:10:20.652Z,39.08
2023-06-09T17:12:50.167Z,39.08
2023-06-09T17:15:18.348Z,37.28
2023-06-09T17:17:46.705Z,36.25
2023-06-09T17:20:14.946Z,36.70
2023-06-09T17:22:43.708Z,36.30
2023-06-09T17:25:12.137Z,36.00
2023-06-09T17:27:40.521Z,37.35
2023-06-09T17:30:14.392Z,39.05
2023-06-09T17:32:43.570Z,42.53
2023-06-09T17:35:12.272Z,43.83
2023-06-09T17:37:40.870Z,45.15
2023-06-09T17:40:11.132Z,46.42
2023-06-09T17:42:39.607Z,49.03
2023-06-09T17:45:11.186Z,48.60
2023-06-09T17:47:40.021Z,48.67
2023-06-09T17:50:10.185Z,47.63
2023-06-09T17:52:38.315Z,46.72
2023-06-09T17:55:07.348Z,47.30
2023-06-09T17:57:35.684Z,47.47
2023-06-09T18:00:05.887Z,48.47
2023-06-09T18:02:39.179Z,48.25
2023-06-09T18:05:08.108Z,49.05
2023-06-09T18:07:36.350Z,49.13
2023-06-09T18:10:06.348Z,50.17
2023-06-09T18:12:34.789Z,50.03
2023-06-09T18:15:03.233Z,48.22
2023-06-09T18:17:32.635Z,49.83
2023-06-09T18:20:02.300Z,49.38
2023-06-09T18:22:32.679Z,49.67
2023-06-09T18:25:00.932Z,52.53
2023-06-09T18:27:29.034Z,51.00
2023-06-09T18:29:57.058Z,51.13
2023-06-09T18:32:25.228Z,51.90
2023-06-09T18:34:53.322Z,51.38
2023-06-09T18:37:22.884Z,53.10
2023-06-09T18:39:51.249Z,53.15
2023-06-09T18:42:19.427Z,52.50
2023-06-09T18:44:47.554Z,53.83
2023-06-09T18:47:16.024Z,54.97
2023-06-09T18:49:46.101Z,53.75
2023-06-09T18:52:14.615Z,53.45
2023-06-09T18:54:44.070Z,53.15
2023-06-09T18:57:12.271Z,54.17
2023-06-09T18:59:40.543Z,54.33
2023-06-09T19:02:09.270Z,54.35
2023-06-09T19:04:37.531Z,55.00
2023-06-09T19:07:06.013Z,56.42
2023-06-09T19:09:34.576Z,54.97
2023-06-09T19:12:04.149Z,54.75
2023-06-09T19:14:32.425Z,55.65
2023-06-09T19:17:00.607Z,56.38
2023-06-09T19:19:28.835Z,55.67
2023-06-09T19:21:56.981Z,55.70
2023-06-09T19:24:25.207Z,56.85
2023-06-09T19:26:53.270Z,57.20
2023-06-09T19:29:22.872Z,58.22
2023-06-09T19:31:51.320Z,58.92
2023-06-09T19:34:19.502Z,60.92
2023-06-09T19:36:47.556Z,61.25
2023-06-09T19:39:15.889Z,61.55
2023-06-09T19:41:44.030Z,63.00
2023-06-09T19:44:12.269Z,63.22
2023-06-09T19:46:41.977Z,62.88
2023-06-09T19:49:12.720Z,63.30
2023-06-09T19:51:41.140Z,61.80
2023-06-09T19:54:09.331Z,64.03
2023-06-09T19:56:46.092Z,63.80
2023-06-09T19:59:15.458Z,64.13
2023-06-09T20:01:45.783Z,61.97
2023-06-09T20:04:14.156Z,61.65
2023-06-09T20:06:43.647Z,60.50
2023-06-09T20:09:12.125Z,60.70
2023-06-09T20:11:40.801Z,60.53
2023-06-09T20:14:10.140Z,61.70
2023-06-09T20:16:39.475Z,60.80
2023-06-09T20:19:09.109Z,61.00
2023-06-09T20:21:37.518Z,61.30
2023-06-09T20:24:07.391Z,62.45
2023-06-09T20:26:35.990Z,62.95
2023-06-09T20:29:04.068Z,63.72
2023-06-09T20:31:32.385Z,64.63
2023-06-09T20:34:01.871Z,65.20
2023-06-09T20:36:33.578Z,65.68
2023-06-09T20:39:02.060Z,65.43
2023-06-09T20:41:30.119Z,65.90
2023-06-09T20:43:58.965Z,67.47
2023-06-09T20:46:27.257Z,69.05
2023-06-09T20:48:55.336Z,69.15
2023-06-09T20:51:23.590Z,70.38
2023-06-09T20:53:53.020Z,70.97
2023-06-09T20:56:21.658Z,71.55
2023-06-09T20:58:49.816Z,71.93
2023-06-09T21:01:18.141Z,72.97
2023-06-09T21:03:48.884Z,73.43
2023-06-09T21:06:21.472Z,73.78
2023-06-09T21:08:50.063Z,73.97
2023-06-09T21:11:20.232Z,73.40
2023-06-09T21:13:48.380Z,73.57
2023-06-09T21:16:16.971Z,75.47
2023-06-09T21:18:45.053Z,74.68
2023-06-09T21:21:13.323Z,73.38
2023-06-09T21:23:41.473Z,74.53
2023-06-09T21:26:09.769Z,74.65
2023-06-09T21:28:43.079Z,73.03
2023-06-09T21:31:12.316Z,72.68
2023-06-09T21:33:40.521Z,73.03
2023-06-09T21:36:09.540Z,72.22
2023-06-09T21:38:37.790Z,71.05
2023-06-09T21:41:06.041Z,75.53
2023-06-09T21:43:34.178Z,72.32
2023-06-09T21:46:03.749Z,70.68
2023-06-09T21:48:31.912Z,71.00
2023-06-09T21:51:00.142Z,72.05
2023-06-09T21:53:28.170Z,74.22
2023-06-09T21:55:56.342Z,74.65
2023-06-09T21:58:24.466Z,75.07
2023-06-09T22:00:52.768Z,77.35
2023-06-09T22:03:22.397Z,81.32
2023-06-09T22:05:50.812Z,83.35
2023-06-09T22:08:18.972Z,84.25
2023-06-09T22:10:47.349Z,88.45
2023-06-09T22:13:18.997Z,89.30
2023-06-09T22:15:47.381Z,89.93
2023-06-09T22:18:18.471Z,89.07
2023-06-09T22:20:48.148Z,90.57
2023-06-09T22:23:16.278Z,90.15
2023-06-09T22:25:44.312Z,90.50
2023-06-09T22:28:12.535Z,91.63
2023-06-09T22:30:40.790Z,92.63
2023-06-09T22:33:09.086Z,92.70
2023-06-09T22:35:37.197Z,92.60
2023-06-09T22:38:06.909Z,94.05
2023-06-09T22:40:35.517Z,94.13
2023-06-09T22:43:03.645Z,93.95
2023-06-09T22:45:31.661Z,94.07
2023-06-09T22:48:01.774Z,94.72
2023-06-09T22:50:30.276Z,94.10
2023-06-09T22:52:58.701Z,93.97
2023-06-09T22:55:28.184Z,93.10
2023-06-09T22:57:56.562Z,94.72
2023-06-09T23:00:24.758Z,97.38
2023-06-09T23:02:53.573Z,97.47
2023-06-09T23:05:28.781Z,97.55
2023-06-09T23:07:57.358Z,99.20
2023-06-09T23:10:25.731Z,97.75
2023-06-09T23:12:55.231Z,98.57
2023-06-09T23:15:24.123Z,98.68
2023-06-09T23:17:53.729Z,97.75
2023-06-09T23:20:23.049Z,100.07
2023-06-09T23:22:52.893Z,96.55
2023-06-09T23:25:21.311Z,98.45
2023-06-09T23:27:49.480Z,97.68
2023-06-09T23:30:19.587Z,98.43
2023-06-09T23:32:47.888Z,98.10
2023-06-09T23:35:18.256Z,99.97
2023-06-09T23:37:53.722Z,99.53
2023-06-09T23:40:21.934Z,101.07
2023-06-09T23:42:50.030Z,100.68
2023-06-09T23:45:19.844Z,101.30
2023-06-09T23:47:48.271Z,102.53
2023-06-09T23:50:16.437Z,103.47
2023-06-09T23:52:44.608Z,102.97
2023-06-09T23:55:12.902Z,102.75
2023-06-09T23:57:42.386Z,104.07
